sensor_id;sensor_type;location;lat;lon;timestamp;temperature;humidity
10848;DHT22;5477;48.806;9.154;2023-07-09T00:01:30;21.40;99.90
10848;DHT22;5477;48.806;9.154;2023-07-09T00:03:58;21.30;99.90
10848;DHT22;5477;48.806;9.154;2023-07-09T00:06:26;21.30;99.90
10848;DHT22;5477;48.806;9.154;2023-07-09T00:08:54;21.30;99.90
10848;DHT22;5477;48.806;9.154;2023-07-09T00:11:22;21.20;99.90
10848;DHT22;5477;48.806;9.154;2023-07-09T00:13:50;21.20;99.90
10848;DHT22;5477;48.806;9.154;2023-07-09T00:16:23;21.20;99.90
10848;DHT22;5477;48.806;9.154;2023-07-09T00:18:51;21.10;99.90
10848;DHT22;5477;48.806;9.154;2023-07-09T00:21:21;20.90;99.90
10848;DHT22;5477;48.806;9.154;2023-07-09T00:23:50;20.90;99.90
10848;DHT22;5477;48.806;9.154;2023-07-09T00:26:19;20.90;99.90
10848;DHT22;5477;48.806;9.154;2023-07-09T00:28:50;20.80;99.90
10848;DHT22;5477;48.806;9.154;2023-07-09T00:31:19;20.70;99.90
10848;DHT22;5477;48.806;9.154;2023-07-09T00:33:48;20.70;99.90
10848;DHT22;5477;48.806;9.154;2023-07-09T00:36:19;20.60;99.90
10848;DHT22;5477;48.806;9.154;2023-07-09T00:38:48;20.70;99.90
10848;DHT22;5477;48.806;9.154;2023-07-09T00:41:21;20.70;99.90
10848;DHT22;5477;48.806;9.154;2023-07-09T00:43:50;20.80;99.90
10848;DHT22;5477;48.806;9.154;2023-07-09T00:49:34;20.70;99.90
10848;DHT22;5477;48.806;9.154;2023-07-09T00:52:07;20.70;99.90
10848;DHT22;5477;48.806;9.154;2023-07-09T00:54:41;20.60;99.90
10848;DHT22;5477;48.806;9.154;2023-07-09T00:57:16;20.60;99.90
10848;DHT22;5477;48.806;9.154;2023-07-09T00:59:49;20.50;99.90
10848;DHT22;5477;48.806;9.154;2023-07-09T01:02:19;20.40;99.90
10848;DHT22;5477;48.806;9.154;2023-07-09T01:04:58;20.40;99.90
10848;DHT22;5477;48.806;9.154;2023-07-09T01:07:29;20.30;99.90
10848;DHT22;5477;48.806;9.154;2023-07-09T01:09:58;20.30;99.90
10848;DHT22;5477;48.806;9.154;2023-07-09T01:12:26;20.30;99.90
10848;DHT22;5477;48.806;9.154;2023-07-09T01:14:56;20.30;99.90
10848;DHT22;5477;48.806;9.154;2023-07-09T01:17:27;20.30;99.90
10848;DHT22;5477;48.806;9.154;2023-07-09T01:19:57;20.30;99.90
10848;DHT22;5477;48.806;9.154;2023-07-09T01:22:27;20.20;99.90
10848;DHT22;5477;48.806;9.154;2023-07-09T01:24:59;20.20;99.90
10848;DHT22;5477;48.806;9.154;2023-07-09T01:27:33;20.20;99.90
10848;DHT22;5477;48.806;9.154;2023-07-09T01:30:04;20.20;99.90
10848;DHT22;5477;48.806;9.154;2023-07-09T01:32:34;20.20;99.90
10848;DHT22;5477;48.806;9.154;2023-07-09T01:35:04;20.20;99.90
10848;DHT22;5477;48.806;9.154;2023-07-09T01:37:36;20.20;99.90
10848;DHT22;5477;48.806;9.154;2023-07-09T01:40:08;20.10;99.90
10848;DHT22;5477;48.806;9.154;2023-07-09T01:42:57;20.00;99.90
10848;DHT22;5477;48.806;9.154;2023-07-09T01:45:26;20.00;99.90
10848;DHT22;5477;48.806;9.154;2023-07-09T01:47:54;19.90;99.90
10848;DHT22;5477;48.806;9.154;2023-07-09T01:50:24;19.90;99.90
10848;DHT22;5477;48.806;9.154;2023-07-09T01:52:57;19.80;99.90
10848;DHT22;5477;48.806;9.154;2023-07-09T01:55:26;19.90;99.90
10848;DHT22;5477;48.806;9.154;2023-07-09T01:57:57;19.90;99.90
10848;DHT22;5477;48.806;9.154;2023-07-09T02:00:25;19.90;99.90
10848;DHT22;5477;48.806;9.154;2023-07-09T02:02:53;20.00;99.90
10848;DHT22;5477;48.806;9.154;2023-07-09T02:05:21;20.00;99.90
10848;DHT22;5477;48.806;9.154;2023-07-09T02:07:52;19.90;99.90
10848;DHT22;5477;48.806;9.154;2023-07-09T02:10:23;19.90;99.90
10848;DHT22;5477;48.806;9.154;2023-07-09T02:12:52;19.80;99.90
10848;DHT22;5477;48.806;9.154;2023-07-09T02:15:20;19.90;99.90
10848;DHT22;5477;48.806;9.154;2023-07-09T02:17:49;19.90;99.90
10848;DHT22;5477;48.806;9.154;2023-07-09T02:20:19;19.90;99.90
10848;DHT22;5477;48.806;9.154;2023-07-09T02:22:49;19.90;99.90
10848;DHT22;5477;48.806;9.154;2023-07-09T02:25:17;19.90;99.90
10848;DHT22;5477;48.806;9.154;2023-07-09T02:27:47;19.90;99.90
10848;DHT22;5477;48.806;9.154;2023-07-09T02:30:17;19.80;99.90
10848;DHT22;5477;48.806;9.154;2023-07-09T02:32:45;19.80;99.90
10848;DHT22;5477;48.806;9.154;2023-07-09T02:35:13;19.80;99.90
10848;DHT22;5477;48.806;9.154;2023-07-09T02:37:41;19.70;99.90
10848;DHT22;5477;48.806;9.154;2023-07-09T02:40:11;19.70;99.90
10848;DHT22;5477;48.806;9.154;2023-07-09T02:42:39;19.70;99.90
10848;DHT22;5477;48.806;9.154;2023-07-09T02:45:10;19.70;99.90
10848;DHT22;5477;48.806;9.154;2023-07-09T02:47:38;19.70;99.90
10848;DHT22;5477;48.806;9.154;2023-07-09T02:50:07;19.70;99.90
10848;DHT22;5477;48.806;9.154;2023-07-09T02:52:35;19.70;99.90
10848;DHT22;5477;48.806;9.154;2023-07-09T02:55:04;19.60;99.90
10848;DHT22;5477;48.806;9.154;2023-07-09T02:57:32;19.50;99.90
10848;DHT22;5477;48.806;9.154;2023-07-09T03:00:00;19.50;99.90
10848;DHT22;5477;48.806;9.154;2023-07-09T03:02:35;19.40;99.90
10848;DHT22;5477;48.806;9.154;2023-07-09T03:05:04;19.40;99.90
10848;DHT22;5477;48.806;9.154;2023-07-09T03:07:32;19.40;99.90
10848;DHT22;5477;48.806;9.154;2023-07-09T03:10:00;19.40;99.90
10848;DHT22;5477;48.806;9.154;2023-07-09T03:12:28;19.40;99.90
10848;DHT22;5477;48.806;9.154;2023-07-09T03:14:57;19.40;99.90
10848;DHT22;5477;48.806;9.154;2023-07-09T03:17:25;19.40;99.90
10848;DHT22;5477;48.806;9.154;2023-07-09T03:19:54;19.40;99.90
10848;DHT22;5477;48.806;9.154;2023-07-09T03:22:23;19.40;99.90
10848;DHT22;5477;48.806;9.154;2023-07-09T03:24:51;19.40;99.90
10848;DHT22;5477;48.806;9.154;2023-07-09T03:27:18;19.30;99.90
10848;DHT22;5477;48.806;9.154;2023-07-09T03:29:47;19.20;99.90
10848;DHT22;5477;48.806;9.154;2023-07-09T03:32:15;19.20;99.90
10848;DHT22;5477;48.806;9.154;2023-07-09T03:34:43;19.20;99.90
10848;DHT22;5477;48.806;9.154;2023-07-09T03:37:12;19.10;99.90
10848;DHT22;5477;48.806;9.154;2023-07-09T03:39:40;19.10;99.90
10848;DHT22;5477;48.806;9.154;2023-07-09T03:42:08;19.10;99.90
10848;DHT22;5477;48.806;9.154;2023-07-09T03:44:38;19.10;99.90
10848;DHT22;5477;48.806;9.154;2023-07-09T03:47:07;19.10;99.90
10848;DHT22;5477;48.806;9.154;2023-07-09T03:49:35;19.00;99.90
10848;DHT22;5477;48.806;9.154;2023-07-09T03:52:04;19.00;99.90
10848;DHT22;5477;48.806;9.154;2023-07-09T03:54:33;18.90;99.90
10848;DHT22;5477;48.806;9.154;2023-07-09T03:57:02;19.00;99.90
10848;DHT22;5477;48.806;9.154;2023-07-09T03:59:30;18.90;99.90
10848;DHT22;5477;48.806;9.154;2023-07-09T04:01:58;19.00;99.90
10848;DHT22;5477;48.806;9.154;2023-07-09T04:04:28;19.10;99.90
10848;DHT22;5477;48.806;9.154;2023-07-09T04:06:56;19.10;99.90
10848;DHT22;5477;48.806;9.154;2023-07-09T04:09:24;19.10;99.90
10848;DHT22;5477;48.806;9.154;2023-07-09T04:11:53;19.10;99.90
10848;DHT22;5477;48.806;9.154;2023-07-09T04:14:21;19.20;99.90
10848;DHT22;5477;48.806;9.154;2023-07-09T04:16:49;19.20;99.90
10848;DHT22;5477;48.806;9.154;2023-07-09T04:19:17;19.40;99.90
10848;DHT22;5477;48.806;9.154;2023-07-09T04:21:45;19.40;99.90
10848;DHT22;5477;48.806;9.154;2023-07-09T04:24:17;19.40;99.90
10848;DHT22;5477;48.806;9.154;2023-07-09T04:26:46;19.40;99.90
10848;DHT22;5477;48.806;9.154;2023-07-09T04:29:15;19.30;99.90
10848;DHT22;5477;48.806;9.154;2023-07-09T04:31:43;19.30;99.90
10848;DHT22;5477;48.806;9.154;2023-07-09T04:34:11;19.30;99.90
10848;DHT22;5477;48.806;9.154;2023-07-09T04:36:39;19.30;99.90
10848;DHT22;5477;48.806;9.154;2023-07-09T04:39:08;19.40;99.90
10848;DHT22;5477;48.806;9.154;2023-07-09T04:41:36;19.50;99.90
10848;DHT22;5477;48.806;9.154;2023-07-09T04:44:04;19.60;99.90
10848;DHT22;5477;48.806;9.154;2023-07-09T04:46:33;19.70;99.90
10848;DHT22;5477;48.806;9.154;2023-07-09T04:49:02;19.80;99.90
10848;DHT22;5477;48.806;9.154;2023-07-09T04:51:31;19.90;99.90
10848;DHT22;5477;48.806;9.154;2023-07-09T04:54:00;19.90;99.90
10848;DHT22;5477;48.806;9.154;2023-07-09T04:56:30;20.10;99.90
10848;DHT22;5477;48.806;9.154;2023-07-09T04:58:58;20.20;99.90
10848;DHT22;5477;48.806;9.154;2023-07-09T05:01:26;20.30;99.90
10848;DHT22;5477;48.806;9.154;2023-07-09T05:03:56;20.40;99.90
10848;DHT22;5477;48.806;9.154;2023-07-09T05:06:24;20.50;99.90
10848;DHT22;5477;48.806;9.154;2023-07-09T05:08:52;20.70;99.90
10848;DHT22;5477;48.806;9.154;2023-07-09T05:11:20;20.80;99.90
10848;DHT22;5477;48.806;9.154;2023-07-09T05:13:48;21.00;99.90
10848;DHT22;5477;48.806;9.154;2023-07-09T05:16:19;21.10;99.90
10848;DHT22;5477;48.806;9.154;2023-07-09T05:18:48;21.30;99.90
10848;DHT22;5477;48.806;9.154;2023-07-09T05:21:17;21.40;99.90
10848;DHT22;5477;48.806;9.154;2023-07-09T05:23:45;21.60;99.90
10848;DHT22;5477;48.806;9.154;2023-07-09T05:26:13;21.70;99.90
10848;DHT22;5477;48.806;9.154;2023-07-09T05:28:41;21.80;99.90
10848;DHT22;5477;48.806;9.154;2023-07-09T05:31:09;21.90;99.90
10848;DHT22;5477;48.806;9.154;2023-07-09T05:33:37;22.00;99.90
10848;DHT22;5477;48.806;9.154;2023-07-09T05:36:05;22.10;99.90
10848;DHT22;5477;48.806;9.154;2023-07-09T05:38:35;22.20;99.90
10848;DHT22;5477;48.806;9.154;2023-07-09T05:41:04;22.40;99.90
10848;DHT22;5477;48.806;9.154;2023-07-09T05:43:32;22.50;99.90
10848;DHT22;5477;48.806;9.154;2023-07-09T05:46:01;22.60;99.90
10848;DHT22;5477;48.806;9.154;2023-07-09T05:48:31;22.80;99.90
10848;DHT22;5477;48.806;9.154;2023-07-09T05:51:00;23.00;99.90
10848;DHT22;5477;48.806;9.154;2023-07-09T05:53:28;23.10;99.90
10848;DHT22;5477;48.806;9.154;2023-07-09T05:55:58;23.20;99.90
10848;DHT22;5477;48.806;9.154;2023-07-09T05:58:26;23.30;99.90
10848;DHT22;5477;48.806;9.154;2023-07-09T06:00:54;23.40;99.90
10848;DHT22;5477;48.806;9.154;2023-07-09T06:03:25;23.60;99.90
10848;DHT22;5477;48.806;9.154;2023-07-09T06:05:54;23.70;99.90
10848;DHT22;5477;48.806;9.154;2023-07-09T06:08:23;23.90;99.90
10848;DHT22;5477;48.806;9.154;2023-07-09T06:10:54;24.10;99.90
10848;DHT22;5477;48.806;9.154;2023-07-09T06:13:25;24.20;99.90
10848;DHT22;5477;48.806;9.154;2023-07-09T06:15:54;24.20;99.90
10848;DHT22;5477;48.806;9.154;2023-07-09T06:18:24;24.40;99.90
10848;DHT22;5477;48.806;9.154;2023-07-09T06:20:57;24.60;99.90
10848;DHT22;5477;48.806;9.154;2023-07-09T06:23:25;24.70;99.90
10848;DHT22;5477;48.806;9.154;2023-07-09T06:25:53;24.90;99.90
10848;DHT22;5477;48.806;9.154;2023-07-09T06:28:25;25.00;99.90
10848;DHT22;5477;48.806;9.154;2023-07-09T06:30:55;25.10;99.90
10848;DHT22;5477;48.806;9.154;2023-07-09T06:33:25;25.20;99.90
10848;DHT22;5477;48.806;9.154;2023-07-09T06:35:55;25.30;99.90
10848;DHT22;5477;48.806;9.154;2023-07-09T06:38:23;25.40;99.90
10848;DHT22;5477;48.806;9.154;2023-07-09T06:40:52;25.50;99.90
10848;DHT22;5477;48.806;9.154;2023-07-09T06:43:20;25.60;99.90
10848;DHT22;5477;48.806;9.154;2023-07-09T06:45:51;25.70;99.90
10848;DHT22;5477;48.806;9.154;2023-07-09T06:48:20;25.70;99.90
10848;DHT22;5477;48.806;9.154;2023-07-09T06:50:48;25.80;99.90
10848;DHT22;5477;48.806;9.154;2023-07-09T06:53:16;25.90;99.90
10848;DHT22;5477;48.806;9.154;2023-07-09T06:55:44;26.00;99.90
10848;DHT22;5477;48.806;9.154;2023-07-09T06:58:12;26.10;99.90
10848;DHT22;5477;48.806;9.154;2023-07-09T07:00:40;26.20;99.90
10848;DHT22;5477;48.806;9.154;2023-07-09T07:03:10;26.30;99.90
10848;DHT22;5477;48.806;9.154;2023-07-09T07:05:43;26.40;99.90
10848;DHT22;5477;48.806;9.154;2023-07-09T07:08:13;26.50;99.90
10848;DHT22;5477;48.806;9.154;2023-07-09T07:10:42;26.60;99.90
10848;DHT22;5477;48.806;9.154;2023-07-09T07:13:10;26.70;99.90
10848;DHT22;5477;48.806;9.154;2023-07-09T07:15:39;26.80;99.90
10848;DHT22;5477;48.806;9.154;2023-07-09T07:18:09;26.90;99.90
10848;DHT22;5477;48.806;9.154;2023-07-09T07:20:37;27.10;99.90
10848;DHT22;5477;48.806;9.154;2023-07-09T07:23:05;27.10;99.90
10848;DHT22;5477;48.806;9.154;2023-07-09T07:25:33;27.20;99.90
10848;DHT22;5477;48.806;9.154;2023-07-09T07:28:01;27.30;99.90
10848;DHT22;5477;48.806;9.154;2023-07-09T07:30:29;27.50;99.90
10848;DHT22;5477;48.806;9.154;2023-07-09T07:32:57;27.50;99.90
10848;DHT22;5477;48.806;9.154;2023-07-09T07:35:27;27.60;99.90
10848;DHT22;5477;48.806;9.154;2023-07-09T07:37:55;27.60;99.90
10848;DHT22;5477;48.806;9.154;2023-07-09T07:40:23;27.80;99.90
10848;DHT22;5477;48.806;9.154;2023-07-09T07:42:51;27.90;99.90
10848;DHT22;5477;48.806;9.154;2023-07-09T07:45:21;28.00;99.90
10848;DHT22;5477;48.806;9.154;2023-07-09T07:47:49;28.00;99.90
10848;DHT22;5477;48.806;9.154;2023-07-09T07:50:18;28.10;99.90
10848;DHT22;5477;48.806;9.154;2023-07-09T07:52:48;28.20;99.90
10848;DHT22;5477;48.806;9.154;2023-07-09T07:55:16;28.20;99.90
10848;DHT22;5477;48.806;9.154;2023-07-09T07:57:46;28.30;99.90
10848;DHT22;5477;48.806;9.154;2023-07-09T08:00:15;28.40;99.70
10848;DHT22;5477;48.806;9.154;2023-07-09T08:02:46;28.40;99.00
10848;DHT22;5477;48.806;9.154;2023-07-09T08:05:14;28.50;98.50
10848;DHT22;5477;48.806;9.154;2023-07-09T08:07:42;28.60;98.20
10848;DHT22;5477;48.806;9.154;2023-07-09T08:10:12;28.60;97.60
10848;DHT22;5477;48.806;9.154;2023-07-09T08:12:42;28.70;98.00
10848;DHT22;5477;48.806;9.154;2023-07-09T08:15:10;28.80;97.50
10848;DHT22;5477;48.806;9.154;2023-07-09T08:17:39;28.90;96.50
10848;DHT22;5477;48.806;9.154;2023-07-09T08:20:08;28.90;96.40
10848;DHT22;5477;48.806;9.154;2023-07-09T08:22:38;29.00;96.20
10848;DHT22;5477;48.806;9.154;2023-07-09T08:25:07;29.20;95.90
10848;DHT22;5477;48.806;9.154;2023-07-09T08:27:37;29.30;94.80
10848;DHT22;5477;48.806;9.154;2023-07-09T08:30:06;29.40;93.90
10848;DHT22;5477;48.806;9.154;2023-07-09T08:32:34;29.50;93.40
10848;DHT22;5477;48.806;9.154;2023-07-09T08:35:03;29.50;92.70
10848;DHT22;5477;48.806;9.154;2023-07-09T08:37:51;29.50;92.90
10848;DHT22;5477;48.806;9.154;2023-07-09T08:40:19;29.50;92.70
10848;DHT22;5477;48.806;9.154;2023-07-09T08:42:54;29.70;92.40
10848;DHT22;5477;48.806;9.154;2023-07-09T08:45:34;29.80;91.80
10848;DHT22;5477;48.806;9.154;2023-07-09T08:48:08;29.80;91.60
10848;DHT22;5477;48.806;9.154;2023-07-09T08:50:39;29.90;91.40
10848;DHT22;5477;48.806;9.154;2023-07-09T08:53:15;29.90;91.00
10848;DHT22;5477;48.806;9.154;2023-07-09T08:55:49;30.00;90.80
10848;DHT22;5477;48.806;9.154;2023-07-09T08:58:24;30.10;90.70
10848;DHT22;5477;48.806;9.154;2023-07-09T09:00:55;30.30;90.50
10848;DHT22;5477;48.806;9.154;2023-07-09T09:03:30;30.40;90.20
10848;DHT22;5477;48.806;9.154;2023-07-09T09:06:01;30.30;90.10
10848;DHT22;5477;48.806;9.154;2023-07-09T09:08:39;30.40;90.00
10848;DHT22;5477;48.806;9.154;2023-07-09T09:11:14;30.40;89.60
10848;DHT22;5477;48.806;9.154;2023-07-09T09:13:45;30.10;90.00
10848;DHT22;5477;48.806;9.154;2023-07-09T09:16:20;30.10;89.50
10848;DHT22;5477;48.806;9.154;2023-07-09T09:18:50;30.30;88.60
10848;DHT22;5477;48.806;9.154;2023-07-09T09:21:23;30.50;88.60
10848;DHT22;5477;48.806;9.154;2023-07-09T09:23:54;30.50;86.90
10848;DHT22;5477;48.806;9.154;2023-07-09T09:26:29;30.70;87.00
10848;DHT22;5477;48.806;9.154;2023-07-09T09:29:00;30.80;85.80
10848;DHT22;5477;48.806;9.154;2023-07-09T09:31:29;30.90;85.90
10848;DHT22;5477;48.806;9.154;2023-07-09T09:33:57;31.10;83.40
10848;DHT22;5477;48.806;9.154;2023-07-09T09:36:27;31.20;85.10
10848;DHT22;5477;48.806;9.154;2023-07-09T09:38:55;31.30;83.90
10848;DHT22;5477;48.806;9.154;2023-07-09T09:41:24;31.50;84.10
10848;DHT22;5477;48.806;9.154;2023-07-09T09:43:54;31.70;84.00
10848;DHT22;5477;48.806;9.154;2023-07-09T09:46:26;31.90;82.80
10848;DHT22;5477;48.806;9.154;2023-07-09T09:48:58;32.00;81.00
10848;DHT22;5477;48.806;9.154;2023-07-09T09:51:27;32.20;80.80
10848;DHT22;5477;48.806;9.154;2023-07-09T09:53:58;32.30;79.60
10848;DHT22;5477;48.806;9.154;2023-07-09T09:56:28;32.50;79.00
10848;DHT22;5477;48.806;9.154;2023-07-09T09:58:57;32.70;76.30
10848;DHT22;5477;48.806;9.154;2023-07-09T10:01:30;32.90;73.80
10848;DHT22;5477;48.806;9.154;2023-07-09T10:04:00;33.10;72.30
10848;DHT22;5477;48.806;9.154;2023-07-09T10:06:35;33.20;68.60
10848;DHT22;5477;48.806;9.154;2023-07-09T10:09:13;33.30;66.80
10848;DHT22;5477;48.806;9.154;2023-07-09T10:11:47;33.20;63.20
10848;DHT22;5477;48.806;9.154;2023-07-09T10:14:26;33.20;59.90
10848;DHT22;5477;48.806;9.154;2023-07-09T10:17:05;33.30;59.70
10848;DHT22;5477;48.806;9.154;2023-07-09T10:19:39;33.30;60.60
10848;DHT22;5477;48.806;9.154;2023-07-09T10:22:15;33.60;60.50
10848;DHT22;5477;48.806;9.154;2023-07-09T10:24:53;33.90;61.40
10848;DHT22;5477;48.806;9.154;2023-07-09T10:27:31;34.20;59.60
10848;DHT22;5477;48.806;9.154;2023-07-09T10:30:13;34.50;60.00
10848;DHT22;5477;48.806;9.154;2023-07-09T10:32:58;34.50;58.50
10848;DHT22;5477;48.806;9.154;2023-07-09T10:35:35;34.50;58.60
10848;DHT22;5477;48.806;9.154;2023-07-09T10:38:26;34.70;57.00
10848;DHT22;5477;48.806;9.154;2023-07-09T10:41:00;35.00;53.60
10848;DHT22;5477;48.806;9.154;2023-07-09T10:43:52;35.00;52.20
10848;DHT22;5477;48.806;9.154;2023-07-09T10:46:25;35.00;52.20
10848;DHT22;5477;48.806;9.154;2023-07-09T10:48:55;35.10;51.00
10848;DHT22;5477;48.806;9.154;2023-07-09T10:51:29;35.30;50.90
10848;DHT22;5477;48.806;9.154;2023-07-09T10:54:02;35.40;50.30
10848;DHT22;5477;48.806;9.154;2023-07-09T10:56:35;35.70;49.80
10848;DHT22;5477;48.806;9.154;2023-07-09T10:59:07;35.70;49.20
10848;DHT22;5477;48.806;9.154;2023-07-09T11:01:40;35.90;48.30
10848;DHT22;5477;48.806;9.154;2023-07-09T11:04:18;36.00;48.00
10848;DHT22;5477;48.806;9.154;2023-07-09T11:06:50;36.10;47.10
10848;DHT22;5477;48.806;9.154;2023-07-09T11:09:24;36.10;46.50
10848;DHT22;5477;48.806;9.154;2023-07-09T11:11:55;36.30;46.60
10848;DHT22;5477;48.806;9.154;2023-07-09T11:14:27;36.50;46.40
10848;DHT22;5477;48.806;9.154;2023-07-09T11:16:58;36.80;46.50
10848;DHT22;5477;48.806;9.154;2023-07-09T11:19:29;36.80;45.70
10848;DHT22;5477;48.806;9.154;2023-07-09T11:21:59;36.80;45.60
10848;DHT22;5477;48.806;9.154;2023-07-09T11:24:35;36.90;45.70
10848;DHT22;5477;48.806;9.154;2023-07-09T11:27:16;37.10;45.70
10848;DHT22;5477;48.806;9.154;2023-07-09T11:29:46;37.50;44.30
10848;DHT22;5477;48.806;9.154;2023-07-09T11:32:18;37.40;43.00
10848;DHT22;5477;48.806;9.154;2023-07-09T11:34:48;37.30;40.90
10848;DHT22;5477;48.806;9.154;2023-07-09T11:37:16;37.40;39.90
10848;DHT22;5477;48.806;9.154;2023-07-09T11:39:46;37.30;39.40
10848;DHT22;5477;48.806;9.154;2023-07-09T11:42:24;37.40;37.90
10848;DHT22;5477;48.806;9.154;2023-07-09T11:44:56;37.00;39.60
10848;DHT22;5477;48.806;9.154;2023-07-09T11:47:27;37.30;39.40
10848;DHT22;5477;48.806;9.154;2023-07-09T11:49:59;37.60;39.30
10848;DHT22;5477;48.806;9.154;2023-07-09T11:52:31;37.80;38.90
10848;DHT22;5477;48.806;9.154;2023-07-09T11:55:26;38.10;38.60
10848;DHT22;5477;48.806;9.154;2023-07-09T11:57:55;38.20;38.50
10848;DHT22;5477;48.806;9.154;2023-07-09T12:00:25;38.40;37.10
10848;DHT22;5477;48.806;9.154;2023-07-09T12:02:56;38.70;36.20
10848;DHT22;5477;48.806;9.154;2023-07-09T12:05:29;39.00;36.40
10848;DHT22;5477;48.806;9.154;2023-07-09T12:07:58;38.90;35.10
10848;DHT22;5477;48.806;9.154;2023-07-09T12:10:31;38.70;34.60
10848;DHT22;5477;48.806;9.154;2023-07-09T12:13:00;38.90;35.40
10848;DHT22;5477;48.806;9.154;2023-07-09T12:15:31;39.10;35.20
10848;DHT22;5477;48.806;9.154;2023-07-09T12:18:00;39.30;36.60
10848;DHT22;5477;48.806;9.154;2023-07-09T12:20:34;39.70;37.00
10848;DHT22;5477;48.806;9.154;2023-07-09T12:23:09;40.00;35.40
10848;DHT22;5477;48.806;9.154;2023-07-09T12:25:38;39.30;34.60
10848;DHT22;5477;48.806;9.154;2023-07-09T12:28:13;39.00;35.50
10848;DHT22;5477;48.806;9.154;2023-07-09T12:30:45;39.10;35.40
10848;DHT22;5477;48.806;9.154;2023-07-09T12:33:17;39.10;35.20
10848;DHT22;5477;48.806;9.154;2023-07-09T12:35:47;39.50;34.70
10848;DHT22;5477;48.806;9.154;2023-07-09T12:38:19;39.80;34.60
10848;DHT22;5477;48.806;9.154;2023-07-09T12:40:48;39.90;35.30
10848;DHT22;5477;48.806;9.154;2023-07-09T12:43:21;40.10;34.90
10848;DHT22;5477;48.806;9.154;2023-07-09T12:45:51;40.40;34.20
10848;DHT22;5477;48.806;9.154;2023-07-09T12:48:22;40.60;33.50
10848;DHT22;5477;48.806;9.154;2023-07-09T12:50:55;40.70;33.60
10848;DHT22;5477;48.806;9.154;2023-07-09T12:53:24;41.00;33.10
10848;DHT22;5477;48.806;9.154;2023-07-09T12:55:56;41.20;33.00
10848;DHT22;5477;48.806;9.154;2023-07-09T12:58:25;41.10;32.50
10848;DHT22;5477;48.806;9.154;2023-07-09T13:00:56;41.10;32.50
10848;DHT22;5477;48.806;9.154;2023-07-09T13:03:26;41.30;32.10
10848;DHT22;5477;48.806;9.154;2023-07-09T13:05:59;41.30;31.50
10848;DHT22;5477;48.806;9.154;2023-07-09T13:08:28;41.30;31.10
10848;DHT22;5477;48.806;9.154;2023-07-09T13:10:58;41.30;30.80
10848;DHT22;5477;48.806;9.154;2023-07-09T13:13:27;41.50;30.50
10848;DHT22;5477;48.806;9.154;2023-07-09T13:15:57;41.40;30.00
10848;DHT22;5477;48.806;9.154;2023-07-09T13:18:28;41.30;30.00
10848;DHT22;5477;48.806;9.154;2023-07-09T13:21:00;41.80;30.20
10848;DHT22;5477;48.806;9.154;2023-07-09T13:23:29;42.00;30.30
10848;DHT22;5477;48.806;9.154;2023-07-09T13:25:57;42.30;30.50
10848;DHT22;5477;48.806;9.154;2023-07-09T13:28:29;42.50;30.70
10848;DHT22;5477;48.806;9.154;2023-07-09T13:31:00;42.90;30.20
10848;DHT22;5477;48.806;9.154;2023-07-09T13:33:29;43.00;30.00
10848;DHT22;5477;48.806;9.154;2023-07-09T13:35:58;43.10;30.70
10848;DHT22;5477;48.806;9.154;2023-07-09T13:38:26;43.10;30.80
10848;DHT22;5477;48.806;9.154;2023-07-09T13:40:57;43.60;30.90
10848;DHT22;5477;48.806;9.154;2023-07-09T13:43:29;44.30;29.70
10848;DHT22;5477;48.806;9.154;2023-07-09T13:46:01;44.30;29.60
10848;DHT22;5477;48.806;9.154;2023-07-09T13:48:31;44.40;29.80
10848;DHT22;5477;48.806;9.154;2023-07-09T13:51:05;44.10;29.30
10848;DHT22;5477;48.806;9.154;2023-07-09T13:53:39;43.20;29.70
10848;DHT22;5477;48.806;9.154;2023-07-09T13:56:07;42.30;31.20
10848;DHT22;5477;48.806;9.154;2023-07-09T13:58:35;42.00;30.90
10848;DHT22;5477;48.806;9.154;2023-07-09T14:01:10;42.10;30.50
10848;DHT22;5477;48.806;9.154;2023-07-09T14:03:40;42.10;30.20
10848;DHT22;5477;48.806;9.154;2023-07-09T14:06:11;42.40;29.80
10848;DHT22;5477;48.806;9.154;2023-07-09T14:08:40;42.60;29.90
10848;DHT22;5477;48.806;9.154;2023-07-09T14:11:10;43.00;30.10
10848;DHT22;5477;48.806;9.154;2023-07-09T14:13:39;43.90;29.40
10848;DHT22;5477;48.806;9.154;2023-07-09T14:16:09;44.30;30.00
10848;DHT22;5477;48.806;9.154;2023-07-09T14:18:38;44.40;30.00
10848;DHT22;5477;48.806;9.154;2023-07-09T14:21:11;44.20;29.90
10848;DHT22;5477;48.806;9.154;2023-07-09T14:23:40;43.80;30.10
10848;DHT22;5477;48.806;9.154;2023-07-09T14:26:08;43.60;30.30
10848;DHT22;5477;48.806;9.154;2023-07-09T14:28:37;43.10;30.70
10848;DHT22;5477;48.806;9.154;2023-07-09T14:31:13;42.80;30.90
10848;DHT22;5477;48.806;9.154;2023-07-09T14:33:45;42.60;31.10
10848;DHT22;5477;48.806;9.154;2023-07-09T14:36:14;42.60;31.20
10848;DHT22;5477;48.806;9.154;2023-07-09T14:38:43;42.60;31.00
10848;DHT22;5477;48.806;9.154;2023-07-09T14:41:19;42.70;30.80
10848;DHT22;5477;48.806;9.154;2023-07-09T14:43:48;42.90;31.10
10848;DHT22;5477;48.806;9.154;2023-07-09T14:46:16;42.70;31.20
10848;DHT22;5477;48.806;9.154;2023-07-09T14:48:44;42.60;31.70
10848;DHT22;5477;48.806;9.154;2023-07-09T14:51:15;42.60;31.40
10848;DHT22;5477;48.806;9.154;2023-07-09T14:53:43;42.70;31.00
10848;DHT22;5477;48.806;9.154;2023-07-09T14:56:13;43.30;30.90
10848;DHT22;5477;48.806;9.154;2023-07-09T14:58:41;43.80;30.90
10848;DHT22;5477;48.806;9.154;2023-07-09T15:01:11;43.50;30.30
10848;DHT22;5477;48.806;9.154;2023-07-09T15:03:40;43.30;30.30
10848;DHT22;5477;48.806;9.154;2023-07-09T15:06:08;42.60;30.80
10848;DHT22;5477;48.806;9.154;2023-07-09T15:08:37;42.20;31.30
10848;DHT22;5477;48.806;9.154;2023-07-09T15:11:05;41.50;31.70
10848;DHT22;5477;48.806;9.154;2023-07-09T15:13:35;40.70;31.90
10848;DHT22;5477;48.806;9.154;2023-07-09T15:16:04;40.10;32.70
10848;DHT22;5477;48.806;9.154;2023-07-09T15:18:33;39.60;32.90
10848;DHT22;5477;48.806;9.154;2023-07-09T15:21:04;39.60;32.90
10848;DHT22;5477;48.806;9.154;2023-07-09T15:23:39;39.30;33.30
10848;DHT22;5477;48.806;9.154;2023-07-09T15:26:12;39.00;33.50
10848;DHT22;5477;48.806;9.154;2023-07-09T15:28:41;39.00;33.30
10848;DHT22;5477;48.806;9.154;2023-07-09T15:31:10;38.70;33.90
10848;DHT22;5477;48.806;9.154;2023-07-09T15:33:38;38.40;34.80
10848;DHT22;5477;48.806;9.154;2023-07-09T15:36:09;38.00;34.30
10848;DHT22;5477;48.806;9.154;2023-07-09T15:38:40;37.70;34.50
10848;DHT22;5477;48.806;9.154;2023-07-09T15:41:11;37.60;35.00
10848;DHT22;5477;48.806;9.154;2023-07-09T15:43:42;37.30;35.40
10848;DHT22;5477;48.806;9.154;2023-07-09T15:46:16;37.40;35.40
10848;DHT22;5477;48.806;9.154;2023-07-09T15:48:45;37.40;35.10
10848;DHT22;5477;48.806;9.154;2023-07-09T15:51:14;37.70;35.10
10848;DHT22;5477;48.806;9.154;2023-07-09T15:53:43;37.70;34.70
10848;DHT22;5477;48.806;9.154;2023-07-09T15:56:16;37.80;34.70
10848;DHT22;5477;48.806;9.154;2023-07-09T15:58:46;38.20;34.30
10848;DHT22;5477;48.806;9.154;2023-07-09T16:01:15;38.50;34.10
10848;DHT22;5477;48.806;9.154;2023-07-09T16:03:46;38.50;34.00
10848;DHT22;5477;48.806;9.154;2023-07-09T16:06:15;38.50;33.90
10848;DHT22;5477;48.806;9.154;2023-07-09T16:08:45;38.50;34.20